Terminal Aerodrome Forecast
Issued by NWS

Home | Current Version | Previous Version | Text Only | Print | Product List | Glossary On
Versions: 1 2 3 4 5 6 7 8 9 10 11 12 13 14 15 16 17 18 19 20 21 22
000
FTUS41 KGYX 040520
TAFRKD
TAF
KRKD 040520Z 0406/0506 00000KT P6SM SKC
     FM040900 20003KT 1 1/2SM BR SKC
     FM041200 20008KT P6SM SKC
     FM042200 23010G17KT P6SM OVC250
      AMD LTD TO CLD VIS AND WIND=

USA.gov is the U.S. government's official web portal to all federal, state and local government web resources and services.